sensor_id;sensor_type;location;lat;lon;timestamp;temperature;humidity
42095;DHT22;27753;55.724;37.612;2022-10-16T00:01:31;6.70;82.10
42095;DHT22;27753;55.724;37.612;2022-10-16T00:03:58;6.70;82.10
42095;DHT22;27753;55.724;37.612;2022-10-16T00:06:25;6.70;82.20
42095;DHT22;27753;55.724;37.612;2022-10-16T00:08:52;6.70;82.30
42095;DHT22;27753;55.724;37.612;2022-10-16T00:11:19;6.70;82.50
42095;DHT22;27753;55.724;37.612;2022-10-16T00:13:47;6.70;82.50
42095;DHT22;27753;55.724;37.612;2022-10-16T00:16:16;6.70;82.60
42095;DHT22;27753;55.724;37.612;2022-10-16T00:18:42;6.60;82.70
42095;DHT22;27753;55.724;37.612;2022-10-16T00:21:14;6.60;82.60
42095;DHT22;27753;55.724;37.612;2022-10-16T00:23:41;6.60;82.80
42095;DHT22;27753;55.724;37.612;2022-10-16T00:26:09;6.60;82.70
42095;DHT22;27753;55.724;37.612;2022-10-16T00:28:36;6.60;82.90
42095;DHT22;27753;55.724;37.612;2022-10-16T00:31:08;6.60;83.00
42095;DHT22;27753;55.724;37.612;2022-10-16T01:13:38;6.50;83.10
42095;DHT22;27753;55.724;37.612;2022-10-16T01:16:28;6.20;84.90
42095;DHT22;27753;55.724;37.612;2022-10-16T01:19:13;6.20;84.90
42095;DHT22;27753;55.724;37.612;2022-10-16T01:21:42;6.10;84.90
42095;DHT22;27753;55.724;37.612;2022-10-16T01:27:13;6.10;85.50
42095;DHT22;27753;55.724;37.612;2022-10-16T01:30:27;6.10;85.30
42095;DHT22;27753;55.724;37.612;2022-10-16T01:32:42;6.10;85.40
42095;DHT22;27753;55.724;37.612;2022-10-16T01:35:34;6.10;85.50
42095;DHT22;27753;55.724;37.612;2022-10-16T01:38:15;6.10;85.80
42095;DHT22;27753;55.724;37.612;2022-10-16T01:40:46;6.00;85.70
42095;DHT22;27753;55.724;37.612;2022-10-16T01:43:19;6.00;85.80
42095;DHT22;27753;55.724;37.612;2022-10-16T01:45:49;6.00;86.10
42095;DHT22;27753;55.724;37.612;2022-10-16T01:48:18;6.00;86.20
42095;DHT22;27753;55.724;37.612;2022-10-16T03:24:06;5.90;86.50
42095;DHT22;27753;55.724;37.612;2022-10-16T03:26:32;5.30;88.90
42095;DHT22;27753;55.724;37.612;2022-10-16T03:28:58;5.30;89.00
42095;DHT22;27753;55.724;37.612;2022-10-16T03:31:23;5.20;89.10
42095;DHT22;27753;55.724;37.612;2022-10-16T03:33:49;5.20;89.20
42095;DHT22;27753;55.724;37.612;2022-10-16T03:36:15;5.20;89.30
42095;DHT22;27753;55.724;37.612;2022-10-16T03:38:41;5.20;89.50
42095;DHT22;27753;55.724;37.612;2022-10-16T03:41:07;5.10;89.50
42095;DHT22;27753;55.724;37.612;2022-10-16T03:43:33;5.10;89.60
42095;DHT22;27753;55.724;37.612;2022-10-16T03:45:59;5.10;89.70
42095;DHT22;27753;55.724;37.612;2022-10-16T03:48:25;5.10;89.80
42095;DHT22;27753;55.724;37.612;2022-10-16T03:50:51;5.10;89.90
42095;DHT22;27753;55.724;37.612;2022-10-16T03:53:17;5.10;90.00
42095;DHT22;27753;55.724;37.612;2022-10-16T03:55:44;5.10;89.90
42095;DHT22;27753;55.724;37.612;2022-10-16T03:58:11;5.10;90.00
42095;DHT22;27753;55.724;37.612;2022-10-16T04:00:41;5.10;90.00
42095;DHT22;27753;55.724;37.612;2022-10-16T04:03:07;5.00;90.00
42095;DHT22;27753;55.724;37.612;2022-10-16T04:05:34;5.00;90.00
42095;DHT22;27753;55.724;37.612;2022-10-16T04:08:00;5.00;90.10
42095;DHT22;27753;55.724;37.612;2022-10-16T04:10:25;5.00;90.10
42095;DHT22;27753;55.724;37.612;2022-10-16T04:12:51;5.00;90.20
42095;DHT22;27753;55.724;37.612;2022-10-16T04:15:17;5.00;90.20
42095;DHT22;27753;55.724;37.612;2022-10-16T04:17:43;5.00;90.20
42095;DHT22;27753;55.724;37.612;2022-10-16T04:20:09;5.00;90.20
42095;DHT22;27753;55.724;37.612;2022-10-16T04:22:35;5.00;90.20
42095;DHT22;27753;55.724;37.612;2022-10-16T04:25:01;5.00;90.20
42095;DHT22;27753;55.724;37.612;2022-10-16T04:27:26;5.00;90.30
42095;DHT22;27753;55.724;37.612;2022-10-16T04:29:53;5.00;90.20
42095;DHT22;27753;55.724;37.612;2022-10-16T04:32:19;5.00;90.20
42095;DHT22;27753;55.724;37.612;2022-10-16T04:34:45;5.00;90.20
42095;DHT22;27753;55.724;37.612;2022-10-16T04:37:11;5.00;90.20
42095;DHT22;27753;55.724;37.612;2022-10-16T04:39:37;5.00;90.20
42095;DHT22;27753;55.724;37.612;2022-10-16T04:42:02;5.00;90.30
42095;DHT22;27753;55.724;37.612;2022-10-16T04:44:28;5.00;90.30
42095;DHT22;27753;55.724;37.612;2022-10-16T04:46:54;5.10;90.30
42095;DHT22;27753;55.724;37.612;2022-10-16T04:49:20;5.00;90.30
42095;DHT22;27753;55.724;37.612;2022-10-16T04:51:46;5.00;90.50
42095;DHT22;27753;55.724;37.612;2022-10-16T04:54:12;5.00;90.20
42095;DHT22;27753;55.724;37.612;2022-10-16T04:56:37;5.00;90.30
42095;DHT22;27753;55.724;37.612;2022-10-16T04:59:11;5.00;90.30
42095;DHT22;27753;55.724;37.612;2022-10-16T05:01:37;5.00;90.30
42095;DHT22;27753;55.724;37.612;2022-10-16T05:04:03;5.00;90.30
42095;DHT22;27753;55.724;37.612;2022-10-16T05:06:29;5.00;90.30
42095;DHT22;27753;55.724;37.612;2022-10-16T05:08:55;5.00;90.30
42095;DHT22;27753;55.724;37.612;2022-10-16T05:11:21;5.10;90.30
42095;DHT22;27753;55.724;37.612;2022-10-16T05:13:47;5.10;90.30
42095;DHT22;27753;55.724;37.612;2022-10-16T05:16:13;5.10;90.30
42095;DHT22;27753;55.724;37.612;2022-10-16T05:18:38;5.10;90.30
42095;DHT22;27753;55.724;37.612;2022-10-16T05:21:04;5.10;90.30
42095;DHT22;27753;55.724;37.612;2022-10-16T05:23:31;5.10;90.30
42095;DHT22;27753;55.724;37.612;2022-10-16T05:25:59;5.10;90.20
42095;DHT22;27753;55.724;37.612;2022-10-16T05:28:25;5.20;90.20
42095;DHT22;27753;55.724;37.612;2022-10-16T05:30:51;5.30;90.10
42095;DHT22;27753;55.724;37.612;2022-10-16T05:33:20;5.20;90.10
42095;DHT22;27753;55.724;37.612;2022-10-16T05:35:49;5.30;90.10
42095;DHT22;27753;55.724;37.612;2022-10-16T05:38:16;5.30;90.00
42095;DHT22;27753;55.724;37.612;2022-10-16T05:40:42;5.40;90.30
42095;DHT22;27753;55.724;37.612;2022-10-16T05:43:08;5.40;90.00
42095;DHT22;27753;55.724;37.612;2022-10-16T05:45:34;5.50;89.90
42095;DHT22;27753;55.724;37.612;2022-10-16T05:48:00;5.50;89.70
42095;DHT22;27753;55.724;37.612;2022-10-16T05:50:27;5.50;89.60
42095;DHT22;27753;55.724;37.612;2022-10-16T05:52:53;5.60;89.60
42095;DHT22;27753;55.724;37.612;2022-10-16T05:55:19;5.60;89.50
42095;DHT22;27753;55.724;37.612;2022-10-16T05:57:45;5.60;89.30
42095;DHT22;27753;55.724;37.612;2022-10-16T09:16:24;23.10;40.90
42095;DHT22;27753;55.724;37.612;2022-10-16T09:19:13;23.50;38.90
42095;DHT22;27753;55.724;37.612;2022-10-16T09:21:42;23.70;38.50
42095;DHT22;27753;55.724;37.612;2022-10-16T09:24:15;24.10;37.60
42095;DHT22;27753;55.724;37.612;2022-10-16T09:26:42;24.20;37.30
42095;DHT22;27753;55.724;37.612;2022-10-16T09:29:15;24.60;37.30
42095;DHT22;27753;55.724;37.612;2022-10-16T09:31:42;25.20;36.40
42095;DHT22;27753;55.724;37.612;2022-10-16T09:34:32;25.10;35.80
42095;DHT22;27753;55.724;37.612;2022-10-16T09:37:05;25.20;35.90
42095;DHT22;27753;55.724;37.612;2022-10-16T09:39:48;25.10;35.60
42095;DHT22;27753;55.724;37.612;2022-10-16T09:42:23;24.10;36.30
42095;DHT22;27753;55.724;37.612;2022-10-16T09:44:53;24.30;36.50
42095;DHT22;27753;55.724;37.612;2022-10-16T09:47:20;24.40;36.20
42095;DHT22;27753;55.724;37.612;2022-10-16T09:50:02;24.40;36.10
42095;DHT22;27753;55.724;37.612;2022-10-16T09:52:30;24.90;35.90
42095;DHT22;27753;55.724;37.612;2022-10-16T09:55:02;25.30;35.00
42095;DHT22;27753;55.724;37.612;2022-10-16T09:57:30;25.40;34.90
42095;DHT22;27753;55.724;37.612;2022-10-16T09:59:57;25.00;34.10
42095;DHT22;27753;55.724;37.612;2022-10-16T10:02:31;24.00;34.90
42095;DHT22;27753;55.724;37.612;2022-10-16T10:04:59;22.70;36.50
42095;DHT22;27753;55.724;37.612;2022-10-16T10:07:28;21.50;38.00
42095;DHT22;27753;55.724;37.612;2022-10-16T10:09:59;20.30;39.80
42095;DHT22;27753;55.724;37.612;2022-10-16T10:12:27;19.10;41.50
42095;DHT22;27753;55.724;37.612;2022-10-16T10:17:26;17.00;44.40
42095;DHT22;27753;55.724;37.612;2022-10-16T10:19:54;16.20;46.50
42095;DHT22;27753;55.724;37.612;2022-10-16T10:22:40;15.70;47.40
42095;DHT22;27753;55.724;37.612;2022-10-16T10:30:48;14.30;50.80
42095;DHT22;27753;55.724;37.612;2022-10-16T10:36:39;14.00;52.00
42095;DHT22;27753;55.724;37.612;2022-10-16T10:39:18;13.80;52.20
42095;DHT22;27753;55.724;37.612;2022-10-16T10:47:31;13.70;53.10
42095;DHT22;27753;55.724;37.612;2022-10-16T10:55:44;13.60;53.80
42095;DHT22;27753;55.724;37.612;2022-10-16T10:58:42;13.50;53.80
42095;DHT22;27753;55.724;37.612;2022-10-16T11:01:16;13.40;54.20
42095;DHT22;27753;55.724;37.612;2022-10-16T11:07:55;13.30;54.50
42095;DHT22;27753;55.724;37.612;2022-10-16T11:10:13;13.30;54.80
42095;DHT22;27753;55.724;37.612;2022-10-16T11:12:44;13.20;55.10
42095;DHT22;27753;55.724;37.612;2022-10-16T11:15:29;13.20;55.50
42095;DHT22;27753;55.724;37.612;2022-10-16T11:18:03;13.20;55.60
42095;DHT22;27753;55.724;37.612;2022-10-16T11:20:34;13.10;55.70
42095;DHT22;27753;55.724;37.612;2022-10-16T11:25:30;13.00;56.30
42095;DHT22;27753;55.724;37.612;2022-10-16T11:28:03;13.00;56.60
42095;DHT22;27753;55.724;37.612;2022-10-16T11:30:50;13.00;57.00
42095;DHT22;27753;55.724;37.612;2022-10-16T11:39:02;12.80;57.10
42095;DHT22;27753;55.724;37.612;2022-10-16T11:44:14;12.70;57.40
42095;DHT22;27753;55.724;37.612;2022-10-16T11:47:01;12.80;57.70
42095;DHT22;27753;55.724;37.612;2022-10-16T11:49:33;12.70;57.40
42095;DHT22;27753;55.724;37.612;2022-10-16T11:52:23;12.70;57.60
42095;DHT22;27753;55.724;37.612;2022-10-16T11:55:05;12.80;57.70
42095;DHT22;27753;55.724;37.612;2022-10-16T11:57:41;12.70;57.70
42095;DHT22;27753;55.724;37.612;2022-10-16T12:00:30;12.70;58.00
42095;DHT22;27753;55.724;37.612;2022-10-16T12:06:00;12.60;58.10
42095;DHT22;27753;55.724;37.612;2022-10-16T12:08:28;12.60;58.30
42095;DHT22;27753;55.724;37.612;2022-10-16T12:11:19;12.60;58.00
42095;DHT22;27753;55.724;37.612;2022-10-16T12:13:48;12.60;58.20
42095;DHT22;27753;55.724;37.612;2022-10-16T12:18:41;12.60;58.40
42095;DHT22;27753;55.724;37.612;2022-10-16T12:21:08;12.50;58.60
42095;DHT22;27753;55.724;37.612;2022-10-16T12:23:50;12.60;58.80
42095;DHT22;27753;55.724;37.612;2022-10-16T12:26:37;12.60;59.00
42095;DHT22;27753;55.724;37.612;2022-10-16T12:29:19;12.50;58.90
42095;DHT22;27753;55.724;37.612;2022-10-16T12:31:48;12.60;58.90
42095;DHT22;27753;55.724;37.612;2022-10-16T12:36:50;12.60;59.80
42095;DHT22;27753;55.724;37.612;2022-10-16T12:39:35;12.60;59.10
42095;DHT22;27753;55.724;37.612;2022-10-16T12:42:17;12.60;59.10
42095;DHT22;27753;55.724;37.612;2022-10-16T12:44:45;12.60;59.30
42095;DHT22;27753;55.724;37.612;2022-10-16T12:49:57;12.80;59.30
42095;DHT22;27753;55.724;37.612;2022-10-16T12:54:58;13.20;58.20
42095;DHT22;27753;55.724;37.612;2022-10-16T12:57:42;13.10;57.80
42095;DHT22;27753;55.724;37.612;2022-10-16T13:00:34;12.90;58.40
42095;DHT22;27753;55.724;37.612;2022-10-16T13:11:44;12.60;59.00
42095;DHT22;27753;55.724;37.612;2022-10-16T13:17:05;12.50;59.40
